Time;durP1;ratioP1;P1;durP2;ratioP2;P2;SDS_P1;SDS_P2;PMS_P1;PMS_P2;Temp;Humidity;BMP_temperature;BMP_pressure;BME280_temperature;BME280_humidity;BME280_pressure;Samples;Min_cycle;Max_cycle;Signal;HPM_P1;HPM_P2
2022/06/12 00:00:34;;;;;;;10.85;3.45;;;14.50;99.90;;;;;;5054326;28;20058;-61
2022/06/12 00:03:02;;;;;;;10.15;2.78;;;14.50;99.90;;;;;;5050242;28;20521;-60
2022/06/12 00:05:34;;;;;;;10.48;3.08;;;14.40;99.90;;;;;;5053302;28;20048;-61
2022/06/12 00:08:02;;;;;;;13.10;3.00;;;14.40;99.90;;;;;;5053424;28;20045;-60
2022/06/12 00:10:28;;;;;;;11.68;3.58;;;14.40;99.90;;;;;;5055056;28;20081;-61
2022/06/12 00:12:54;;;;;;;12.20;3.22;;;14.30;99.90;;;;;;5061636;28;21169;-61
2022/06/12 00:15:24;;;;;;;8.95;3.20;;;14.20;99.90;;;;;;5052048;28;20132;-61
2022/06/12 00:17:51;;;;;;;11.63;3.20;;;14.20;99.90;;;;;;5058867;28;20084;-61
2022/06/12 00:20:19;;;;;;;13.68;2.95;;;14.10;99.90;;;;;;5055991;28;20168;-61
2022/06/12 00:22:46;;;;;;;12.05;3.58;;;14.10;99.90;;;;;;5060357;28;20556;-60
2022/06/12 00:25:14;;;;;;;10.30;3.00;;;14.00;99.90;;;;;;5058187;28;20044;-61
2022/06/12 00:27:42;;;;;;;12.85;3.35;;;13.90;99.90;;;;;;5051409;28;20033;-59
2022/06/12 00:30:11;;;;;;;9.23;2.97;;;13.90;99.90;;;;;;5050840;28;20055;-61
2022/06/12 00:32:38;;;;;;;9.07;2.67;;;13.90;99.90;;;;;;5054748;28;20062;-62
2022/06/12 00:35:07;;;;;;;11.07;3.08;;;13.90;99.90;;;;;;5053035;28;20078;-60
2022/06/12 00:37:34;;;;;;;12.60;2.88;;;13.90;99.90;;;;;;5050795;28;20055;-62
2022/06/12 00:40:00;;;;;;;12.02;3.20;;;13.90;99.90;;;;;;5057609;28;20075;-61
2022/06/12 00:42:33;;;;;;;9.35;2.85;;;13.80;99.90;;;;;;5054773;28;20147;-58
2022/06/12 00:45:01;;;;;;;12.02;3.15;;;13.80;99.90;;;;;;5055524;28;20517;-61
2022/06/12 00:47:27;;;;;;;15.40;3.10;;;13.80;99.90;;;;;;5055630;28;20522;-61
2022/06/12 00:50:11;;;;;;;7.88;2.60;;;13.80;99.90;;;;;;5052644;28;20043;-62
2022/06/12 00:52:47;;;;;;;14.30;3.40;;;13.80;99.90;;;;;;5054307;28;20045;-58
2022/06/12 00:55:37;;;;;;;14.43;3.38;;;13.80;99.90;;;;;;5050610;28;20051;-62
2022/06/12 00:58:07;;;;;;;11.07;3.22;;;13.70;99.90;;;;;;5051896;28;20068;-61
2022/06/12 01:00:34;;;;;;;9.30;2.80;;;13.70;99.90;;;;;;5051948;28;20043;-60
2022/06/12 01:03:00;;;;;;;11.95;2.95;;;13.70;99.90;;;;;;5054492;28;20056;-62
2022/06/12 01:08:13;;;;;;;9.43;2.58;;;13.70;99.90;;;;;;5048125;28;20131;-61
2022/06/12 01:10:41;;;;;;;10.55;2.70;;;13.70;99.90;;;;;;5054219;28;20613;-59
2022/06/12 01:13:17;;;;;;;9.50;2.97;;;13.60;99.90;;;;;;5053900;28;20044;-61
2022/06/12 01:15:54;;;;;;;11.88;3.15;;;13.70;99.90;;;;;;5050980;28;20048;-61
2022/06/12 01:18:23;;;;;;;17.70;3.55;;;13.60;99.90;;;;;;5053506;28;20109;-62
2022/06/12 01:21:24;;;;;;;9.57;2.90;;;13.60;99.90;;;;;;5052381;28;20044;-61
2022/06/12 01:24:01;;;;;;;12.85;2.80;;;13.60;99.90;;;;;;5045030;28;20052;-59
2022/06/12 01:27:12;;;;;;;9.13;2.83;;;13.50;99.90;;;;;;5051975;28;20078;-61
2022/06/12 01:29:44;;;;;;;9.00;2.67;;;13.50;99.90;;;;;;5052186;28;20040;-62
2022/06/12 01:32:34;;;;;;;9.90;3.10;;;13.50;99.90;;;;;;5046403;28;20051;-61
2022/06/12 01:35:27;;;;;;;10.45;2.95;;;13.50;99.90;;;;;;5052274;28;20044;-61
2022/06/12 01:38:24;;;;;;;8.23;2.75;;;13.50;99.90;;;;;;5052122;28;20044;-61
2022/06/12 01:41:34;;;;;;;8.35;2.75;;;13.40;99.90;;;;;;5052625;28;20049;-61
2022/06/12 01:44:32;;;;;;;7.78;3.00;;;13.40;99.90;;;;;;4999198;28;20121;-61
2022/06/12 01:47:05;;;;;;;12.80;3.10;;;13.40;99.90;;;;;;4996644;28;20054;-62
2022/06/12 01:49:31;;;;;;;;;;;13.30;99.90;;;;;;5037570;28;20056;-61
2022/06/12 01:52:07;;;;;;;13.05;2.70;;;13.30;99.90;;;;;;5054290;28;19920;-61
2022/06/12 01:54:51;;;;;;;8.93;2.92;;;13.30;99.90;;;;;;5053305;28;20478;-62
2022/06/12 01:57:25;;;;;;;11.10;2.97;;;13.30;99.90;;;;;;5054473;28;20437;-61
2022/06/12 02:00:10;;;;;;;9.23;2.83;;;13.30;99.90;;;;;;5056368;28;20036;-62
2022/06/12 02:02:57;;;;;;;10.27;2.67;;;13.20;99.90;;;;;;5041976;28;20049;-61
2022/06/12 02:05:31;;;;;;;11.60;2.80;;;13.20;99.90;;;;;;5026626;28;20059;-61
2022/06/12 02:08:09;;;;;;;10.65;2.78;;;13.20;99.90;;;;;;5049295;28;20045;-61
2022/06/12 02:10:50;;;;;;;11.15;3.25;;;13.20;99.90;;;;;;5055360;28;20072;-62
2022/06/12 02:13:25;;;;;;;10.43;3.00;;;13.10;99.90;;;;;;5050315;28;20187;-60
2022/06/12 02:16:08;;;;;;;12.13;3.10;;;13.10;99.90;;;;;;5054502;28;20431;-59
2022/06/12 02:18:42;;;;;;;13.10;3.42;;;13.10;99.90;;;;;;5054853;28;20406;-61
2022/06/12 02:21:23;;;;;;;10.65;2.80;;;13.10;99.90;;;;;;5051008;28;20059;-60
2022/06/12 02:24:01;;;;;;;10.82;2.90;;;13.10;99.90;;;;;;5054162;28;20123;-60
2022/06/12 02:26:34;;;;;;;10.98;3.08;;;13.00;99.90;;;;;;5056568;28;20345;-59
2022/06/12 02:29:06;;;;;;;;;;;13.00;99.90;;;;;;5057689;28;20117;-60
2022/06/12 02:31:36;;;;;;;11.00;3.08;;;13.00;99.90;;;;;;5058475;28;19979;-62
2022/06/12 02:34:12;;;;;;;12.48;3.40;;;12.90;99.90;;;;;;5059009;28;20121;-60
2022/06/12 02:36:45;;;;;;;11.00;3.60;;;12.90;99.90;;;;;;5054370;28;20450;-61
2022/06/12 02:39:36;;;;;;;10.98;3.05;;;12.90;99.90;;;;;;5053311;28;20137;-60
2022/06/12 02:42:07;;;;;;;11.30;3.28;;;12.90;99.90;;;;;;5057098;28;20061;-61
2022/06/12 02:44:37;;;;;;;11.63;3.35;;;12.90;99.90;;;;;;5049687;28;20457;-60
2022/06/12 02:47:08;;;;;;;10.93;3.22;;;12.90;99.90;;;;;;5056472;28;20048;-62
2022/06/12 02:49:37;;;;;;;14.38;3.38;;;12.90;99.90;;;;;;5044625;28;20044;-61
2022/06/12 02:52:37;;;;;;;14.60;3.90;;;12.80;99.90;;;;;;5056372;28;20067;-61
2022/06/12 02:55:03;;;;;;;11.45;3.42;;;12.80;99.90;;;;;;5052877;28;20053;-59
2022/06/12 02:57:35;;;;;;;14.70;3.30;;;12.90;99.90;;;;;;5056996;28;20056;-62
2022/06/12 03:00:28;;;;;;;12.80;3.50;;;12.80;99.90;;;;;;5056947;28;20048;-62
2022/06/12 03:03:00;;;;;;;12.90;3.50;;;12.80;99.90;;;;;;5053912;28;20048;-62
2022/06/12 03:05:32;;;;;;;12.57;2.88;;;12.80;99.90;;;;;;5054656;28;20465;-62
2022/06/12 03:08:02;;;;;;;11.77;3.00;;;12.70;99.90;;;;;;5055811;28;20050;-61
2022/06/12 03:10:37;;;;;;;13.50;3.47;;;12.70;99.90;;;;;;5053479;28;20782;-62
2022/06/12 03:13:06;;;;;;;13.05;3.15;;;12.70;99.90;;;;;;5058806;28;20163;-62
2022/06/12 03:15:51;;;;;;;14.60;3.30;;;12.70;99.90;;;;;;5053967;28;20048;-59
2022/06/12 03:18:26;;;;;;;12.85;3.75;;;12.70;99.90;;;;;;5055395;28;20045;-61
2022/06/12 03:20:55;;;;;;;12.07;3.72;;;12.70;99.90;;;;;;5050662;28;20110;-62
2022/06/12 03:23:23;;;;;;;18.58;3.60;;;12.70;99.90;;;;;;5050229;28;20054;-62
2022/06/12 03:25:53;;;;;;;14.77;3.70;;;12.80;99.90;;;;;;5052299;28;20445;-62
2022/06/12 03:28:37;;;;;;;11.40;3.13;;;12.70;99.90;;;;;;5048421;28;20402;-62
2022/06/12 03:31:30;;;;;;;16.98;3.83;;;12.80;99.90;;;;;;5053707;28;20036;-62
2022/06/12 03:34:28;;;;;;;13.00;3.65;;;12.70;99.90;;;;;;5053462;28;20117;-60
2022/06/12 03:37:04;;;;;;;15.27;4.10;;;12.70;99.90;;;;;;5008979;28;20732;-62
2022/06/12 03:39:43;;;;;;;12.18;2.92;;;12.80;99.90;;;;;;5055935;28;20049;-63
2022/06/12 03:42:25;;;;;;;15.52;3.92;;;12.70;99.90;;;;;;5058507;28;20475;-64
2022/06/12 03:45:22;;;;;;;14.87;3.73;;;12.70;99.90;;;;;;5058246;28;20159;-61
2022/06/12 03:48:12;;;;;;;13.95;3.20;;;12.70;99.90;;;;;;5057012;28;20491;-62
2022/06/12 03:50:53;;;;;;;12.90;3.83;;;12.70;99.90;;;;;;5056847;28;20043;-62
2022/06/12 03:53:34;;;;;;;16.88;3.83;;;12.70;99.90;;;;;;5051709;28;20044;-62
2022/06/12 03:59:08;;;;;;;15.25;3.50;;;12.70;99.90;;;;;;5049620;28;20441;-62
2022/06/12 04:01:34;;;;;;;15.80;3.53;;;12.70;99.90;;;;;;5056643;28;20487;-62
2022/06/12 04:04:02;;;;;;;11.57;3.13;;;12.70;99.90;;;;;;5054651;28;20049;-62
2022/06/12 04:06:31;;;;;;;14.60;3.45;;;12.80;99.90;;;;;;5025988;28;20787;-63
2022/06/12 04:09:04;;;;;;;12.90;3.22;;;12.80;99.90;;;;;;5051899;28;20048;-63
2022/06/12 04:11:36;;;;;;;13.32;3.35;;;12.80;99.90;;;;;;5055644;28;20052;-62
2022/06/12 04:14:04;;;;;;;12.07;3.67;;;12.80;99.90;;;;;;5055647;28;20064;-63
2022/06/12 04:16:41;;;;;;;13.05;3.58;;;12.80;99.90;;;;;;5054183;28;20290;-63
2022/06/12 04:19:14;;;;;;;9.18;3.20;;;12.90;99.90;;;;;;5037341;28;20055;-61
2022/06/12 04:21:51;;;;;;;13.95;3.25;;;12.90;99.90;;;;;;5049878;28;20040;-63
2022/06/12 04:24:26;;;;;;;14.35;3.63;;;13.00;99.90;;;;;;5051544;28;20060;-62
2022/06/12 04:27:04;;;;;;;10.02;3.08;;;13.00;99.90;;;;;;5053059;28;20040;-64
2022/06/12 04:29:33;;;;;;;14.52;3.70;;;13.10;99.90;;;;;;5053130;28;20049;-62
2022/06/12 04:32:02;;;;;;;13.45;3.30;;;13.20;99.90;;;;;;5054464;28;20045;-62
2022/06/12 04:34:38;;;;;;;10.35;3.13;;;13.20;99.90;;;;;;5053951;28;20517;-61
2022/06/12 04:37:10;;;;;;;13.77;3.80;;;13.30;99.90;;;;;;5054620;28;20098;-63
2022/06/12 04:39:36;;;;;;;14.23;3.53;;;13.30;99.90;;;;;;5053098;28;20136;-61
2022/06/12 04:42:03;;;;;;;13.02;3.95;;;13.30;99.90;;;;;;5052445;28;20044;-62
2022/06/12 04:44:30;;;;;;;11.43;3.38;;;13.40;99.90;;;;;;5049411;28;20556;-63
2022/06/12 04:46:58;;;;;;;13.20;3.70;;;13.40;99.90;;;;;;5054640;28;20105;-62
2022/06/12 04:49:26;;;;;;;14.50;3.47;;;13.50;99.90;;;;;;5055623;28;20115;-60
2022/06/12 04:51:55;;;;;;;14.35;3.33;;;13.50;99.90;;;;;;5052709;28;20047;-63
2022/06/12 04:54:22;;;;;;;18.55;3.80;;;13.50;99.90;;;;;;5055734;28;20178;-63
2022/06/12 04:56:49;;;;;;;12.48;3.47;;;13.50;99.90;;;;;;5051809;28;20257;-63
2022/06/12 04:59:17;;;;;;;13.70;3.90;;;13.50;99.90;;;;;;5054789;28;20391;-62
2022/06/12 05:01:45;;;;;;;11.43;3.67;;;13.50;99.90;;;;;;5050445;28;20098;-62
2022/06/12 05:04:12;;;;;;;15.00;3.40;;;13.50;99.90;;;;;;5053850;28;20072;-62
2022/06/12 05:06:39;;;;;;;12.68;3.67;;;13.50;99.90;;;;;;5052069;28;20041;-62
2022/06/12 05:09:05;;;;;;;14.60;3.70;;;13.40;99.90;;;;;;5050766;28;20047;-63
2022/06/12 05:11:32;;;;;;;12.90;3.75;;;13.50;99.90;;;;;;5046372;28;20439;-61
2022/06/12 05:13:58;;;;;;;11.23;3.45;;;13.50;99.90;;;;;;5053229;28;20456;-62
2022/06/12 05:16:41;;;;;;;12.23;3.55;;;13.50;99.90;;;;;;5053618;28;20161;-61
2022/06/12 05:19:11;;;;;;;18.45;4.50;;;13.60;99.90;;;;;;5055766;28;20051;-63
2022/06/12 05:21:37;;;;;;;14.65;3.70;;;13.70;99.90;;;;;;5048095;28;20047;-61
2022/06/12 05:24:03;;;;;;;19.73;4.38;;;13.70;99.90;;;;;;5053776;28;20044;-61
2022/06/12 05:26:33;;;;;;;19.77;4.13;;;13.80;99.90;;;;;;5053648;28;20046;-60
2022/06/12 05:29:01;;;;;;;15.60;3.92;;;13.80;99.90;;;;;;5034766;28;20044;-62
2022/06/12 05:31:27;;;;;;;19.80;4.45;;;13.90;99.90;;;;;;5055131;28;20044;-60
2022/06/12 05:33:53;;;;;;;16.70;4.30;;;14.00;99.90;;;;;;5067941;28;20060;-62
2022/06/12 05:36:19;;;;;;;20.35;4.93;;;14.00;99.90;;;;;;5050910;28;20288;-61
2022/06/12 05:38:46;;;;;;;20.75;4.85;;;14.10;99.90;;;;;;5050660;28;20078;-62
2022/06/12 05:41:13;;;;;;;15.48;4.32;;;14.10;99.90;;;;;;5053358;28;20040;-62
2022/06/12 05:43:40;;;;;;;19.67;4.80;;;14.20;99.90;;;;;;5056335;28;20102;-61
2022/06/12 05:46:12;;;;;;;20.33;5.07;;;14.30;99.90;;;;;;5053934;28;20057;-62
2022/06/12 05:48:39;;;;;;;17.23;4.40;;;14.40;99.90;;;;;;5054702;28;20045;-63
2022/06/12 05:51:05;;;;;;;25.75;5.15;;;14.40;99.90;;;;;;5049351;28;20094;-61
2022/06/12 05:53:33;;;;;;;23.20;5.00;;;14.60;99.90;;;;;;5050941;28;20450;-62
2022/06/12 05:56:00;;;;;;;17.50;5.57;;;14.60;99.90;;;;;;5057159;28;20045;-61
2022/06/12 05:58:28;;;;;;;29.38;4.88;;;14.70;99.90;;;;;;5060246;28;20078;-63
2022/06/12 06:00:56;;;;;;;23.25;5.28;;;14.80;99.90;;;;;;5050527;28;20072;-62
2022/06/12 06:03:22;;;;;;;26.13;5.55;;;14.90;99.90;;;;;;5053569;28;20064;-63
2022/06/12 06:05:48;;;;;;;20.42;4.97;;;15.10;99.90;;;;;;5044788;28;20082;-61
2022/06/12 06:08:16;;;;;;;21.42;5.05;;;15.20;99.90;;;;;;5056425;28;20142;-61
2022/06/12 06:10:43;;;;;;;30.98;6.00;;;15.40;99.90;;;;;;5053885;28;20525;-62
2022/06/12 06:13:10;;;;;;;24.30;5.68;;;15.50;99.90;;;;;;5054789;28;20044;-63
2022/06/12 06:15:37;;;;;;;30.33;5.20;;;15.60;99.90;;;;;;5059236;28;20044;-62
2022/06/12 06:18:04;;;;;;;26.38;6.50;;;15.60;99.90;;;;;;5054430;28;20138;-62
2022/06/12 06:20:33;;;;;;;21.73;5.15;;;15.70;99.90;;;;;;5054757;28;20044;-62
2022/06/12 06:23:00;;;;;;;33.28;6.43;;;15.80;99.90;;;;;;5054119;28;20048;-62
2022/06/12 06:25:28;;;;;;;26.73;5.82;;;15.90;99.90;;;;;;5053101;28;20078;-61
2022/06/12 06:27:55;;;;;;;24.25;5.47;;;16.00;99.90;;;;;;5053652;28;20055;-61
2022/06/12 06:30:22;;;;;;;23.60;5.80;;;16.10;99.90;;;;;;5052816;28;20033;-60
2022/06/12 06:32:48;;;;;;;27.55;5.80;;;16.20;99.90;;;;;;5056789;28;20033;-62
2022/06/12 06:35:15;;;;;;;25.83;6.45;;;16.20;99.90;;;;;;5051400;28;20113;-61
2022/06/12 06:37:41;;;;;;;26.75;6.30;;;16.30;99.90;;;;;;5055216;28;20041;-62
2022/06/12 06:40:09;;;;;;;23.60;5.63;;;16.30;99.90;;;;;;5054463;28;20032;-61
2022/06/12 06:42:35;;;;;;;27.42;6.95;;;16.40;99.90;;;;;;5056552;28;20952;-61
2022/06/12 06:47:47;;;;;;;27.33;6.28;;;16.60;99.90;;;;;;5054793;28;20049;-60
2022/06/12 06:50:15;;;;;;;27.92;6.20;;;16.70;99.90;;;;;;5055137;28;20108;-61
2022/06/12 06:52:41;;;;;;;27.20;7.07;;;16.80;99.90;;;;;;5054314;28;20040;-63
2022/06/12 06:55:09;;;;;;;28.23;6.47;;;17.00;99.90;;;;;;5059171;28;20071;-61
2022/06/12 06:57:36;;;;;;;24.90;6.82;;;17.00;99.90;;;;;;5057811;28;20048;-59
2022/06/12 07:00:04;;;;;;;29.02;6.25;;;17.20;99.90;;;;;;5057940;28;20110;-62
2022/06/12 07:02:30;;;;;;;24.70;6.30;;;17.30;99.90;;;;;;5051382;28;20048;-63
2022/06/12 07:04:56;;;;;;;33.22;7.00;;;17.40;99.90;;;;;;5057428;28;20052;-61
2022/06/12 07:07:22;;;;;;;24.33;6.03;;;17.50;99.90;;;;;;5058724;28;20367;-62
2022/06/12 07:09:48;;;;;;;20.05;5.38;;;17.50;99.90;;;;;;5058153;28;20071;-62
2022/06/12 07:12:13;;;;;;;20.98;6.38;;;17.50;99.90;;;;;;5039852;28;20090;-62
2022/06/12 07:14:39;;;;;;;27.67;5.65;;;17.60;99.90;;;;;;5060355;28;20040;-61
2022/06/12 07:17:05;;;;;;;27.50;5.38;;;17.70;99.90;;;;;;5061852;28;20047;-60
2022/06/12 07:19:32;;;;;;;18.58;5.13;;;17.80;99.90;;;;;;5061546;28;20048;-62
2022/06/12 07:21:59;;;;;;;20.30;4.32;;;17.90;99.90;;;;;;5058325;28;20049;-61
2022/06/12 07:24:25;;;;;;;20.20;4.78;;;18.00;99.90;;;;;;5056270;28;20135;-61
2022/06/12 07:26:51;;;;;;;19.40;4.32;;;18.10;99.90;;;;;;5062977;28;20115;-61
2022/06/12 07:29:21;;;;;;;19.05;4.55;;;18.20;99.90;;;;;;5058329;28;20511;-62
2022/06/12 07:31:48;;;;;;;15.90;3.88;;;18.30;99.90;;;;;;5054628;28;20048;-61
2022/06/12 07:34:15;;;;;;;21.08;4.45;;;18.50;99.90;;;;;;5053374;28;20059;-63
2022/06/12 07:36:43;;;;;;;20.15;4.95;;;18.50;99.90;;;;;;5033539;28;20105;-63
2022/06/12 07:39:13;;;;;;;13.30;3.50;;;18.60;99.90;;;;;;5060046;28;21098;-62
2022/06/12 07:41:39;;;;;;;20.83;4.13;;;18.80;99.90;;;;;;5061760;28;20174;-60
2022/06/12 07:44:05;;;;;;;19.52;4.35;;;18.80;99.90;;;;;;5063382;28;20044;-61
2022/06/12 07:46:32;;;;;;;22.05;4.93;;;19.00;99.90;;;;;;5059603;28;20380;-62
2022/06/12 07:48:58;;;;;;;16.02;3.83;;;19.10;99.90;;;;;;5055845;28;20053;-61
2022/06/12 07:51:24;;;;;;;13.50;3.42;;;19.20;99.90;;;;;;5059624;28;20044;-62
2022/06/12 07:53:51;;;;;;;15.20;3.53;;;19.30;99.90;;;;;;5053278;28;20071;-62
2022/06/12 07:56:20;;;;;;;15.50;3.92;;;19.40;99.90;;;;;;5057206;28;20084;-62
2022/06/12 07:58:46;;;;;;;12.50;3.22;;;19.50;99.90;;;;;;5075945;28;20048;-61
2022/06/12 08:01:16;;;;;;;22.58;4.05;;;19.50;99.90;;;;;;5056081;28;20044;-62
2022/06/12 08:03:42;;;;;;;13.40;3.45;;;19.70;99.90;;;;;;5054809;28;20051;-64
2022/06/12 08:06:09;;;;;;;15.90;3.25;;;19.70;99.90;;;;;;5049186;28;20052;-61
2022/06/12 08:08:35;;;;;;;17.38;3.38;;;19.80;99.90;;;;;;5056992;28;20123;-62
2022/06/12 08:11:01;;;;;;;13.73;3.20;;;19.90;99.90;;;;;;5055540;28;20117;-62
2022/06/12 08:13:28;;;;;;;12.23;2.83;;;20.00;99.90;;;;;;5053169;28;20040;-62
2022/06/12 08:15:55;;;;;;;15.40;3.03;;;20.00;99.90;;;;;;5054693;28;20087;-64
2022/06/12 08:18:22;;;;;;;15.00;3.30;;;20.10;99.90;;;;;;5054803;28;20071;-61
2022/06/12 08:20:52;;;;;;;14.20;3.60;;;20.20;99.90;;;;;;5056981;28;20050;-62
2022/06/12 08:23:26;;;;;;;18.80;4.03;;;20.30;99.90;;;;;;5057355;28;20040;-62
2022/06/12 08:26:04;;;;;;;11.65;3.60;;;20.30;99.90;;;;;;5059432;28;20079;-61
2022/06/12 08:28:34;;;;;;;13.02;2.88;;;20.40;99.90;;;;;;5057244;28;20048;-61
2022/06/12 08:31:03;;;;;;;14.50;3.92;;;20.40;99.90;;;;;;5057912;28;20036;-61
2022/06/12 08:33:29;;;;;;;13.27;3.47;;;20.50;99.90;;;;;;5052477;28;20483;-61
2022/06/12 08:35:55;;;;;;;17.17;3.70;;;20.50;99.90;;;;;;5055011;28;20134;-61
2022/06/12 08:38:21;;;;;;;17.95;3.47;;;20.50;99.90;;;;;;5038471;28;20112;-61
2022/06/12 08:41:03;;;;;;;14.18;3.88;;;20.50;99.90;;;;;;5046922;28;20044;-60
2022/06/12 08:44:10;;;;;;;13.70;3.42;;;20.60;99.90;;;;;;5040957;28;21994;-60
2022/06/12 08:46:38;;;;;;;17.63;3.95;;;20.60;99.90;;;;;;5035313;28;20086;-62
2022/06/12 08:49:46;;;;;;;22.30;4.00;;;20.60;99.90;;;;;;5044423;28;20416;-61
2022/06/12 08:52:52;;;;;;;15.27;3.80;;;20.60;99.90;;;;;;4966924;28;20404;-61
2022/06/12 08:55:41;;;;;;;12.80;3.75;;;20.80;99.90;;;;;;4909305;29;20683;-60
2022/06/12 08:58:39;;;;;;;16.55;3.85;;;20.90;99.70;;;;;;5039482;28;20056;-62
2022/06/12 09:01:05;;;;;;;17.65;3.85;;;21.20;99.80;;;;;;5047168;28;20121;-61
2022/06/12 09:03:37;;;;;;;14.95;3.85;;;21.40;99.10;;;;;;5047560;28;20045;-62
2022/06/12 09:06:27;;;;;;;11.07;3.65;;;21.70;98.80;;;;;;5047753;28;20294;-62
2022/06/12 09:09:03;;;;;;;15.13;3.53;;;21.90;98.60;;;;;;5010259;28;20098;-62
2022/06/12 09:11:42;;;;;;;12.63;3.50;;;22.10;98.50;;;;;;5051127;28;20135;-61
2022/06/12 09:14:38;;;;;;;12.00;3.00;;;22.20;97.40;;;;;;5047871;28;20052;-63
2022/06/12 09:17:16;;;;;;;12.23;3.03;;;22.00;97.10;;;;;;5043802;28;20048;-62
2022/06/12 09:20:18;;;;;;;11.40;2.85;;;21.60;96.50;;;;;;5026942;28;20599;-63
2022/06/12 09:23:10;;;;;;;14.82;3.20;;;21.40;96.90;;;;;;5046665;28;20044;-60
2022/06/12 09:25:55;;;;;;;11.23;3.27;;;21.20;97.10;;;;;;5055036;28;20059;-62
2022/06/12 09:28:43;;;;;;;8.77;2.90;;;21.00;97.90;;;;;;5042853;28;20059;-62
2022/06/12 09:31:33;;;;;;;14.45;3.63;;;21.20;98.00;;;;;;5060010;28;20070;-62
2022/06/12 09:34:28;;;;;;;10.98;2.92;;;21.50;98.10;;;;;;5049472;28;20045;-63
2022/06/12 09:38:18;;;;;;;14.30;3.42;;;21.90;97.30;;;;;;5042994;28;20098;-62
2022/06/12 09:40:04;;;;;;;10.20;2.80;;;22.10;96.30;;;;;;5040110;28;20051;-62
2022/06/12 09:43:15;;;;;;;12.30;2.80;;;22.00;95.00;;;;;;5048501;28;20169;-61
2022/06/12 09:46:02;;;;;;;15.07;3.30;;;21.90;94.50;;;;;;5049432;28;20197;-62
2022/06/12 09:48:36;;;;;;;7.72;2.95;;;21.70;93.80;;;;;;5046142;28;20048;-61
2022/06/12 09:51:21;;;;;;;12.77;2.92;;;21.50;94.00;;;;;;5047902;28;20052;-59
2022/06/12 09:54:16;;;;;;;15.30;2.60;;;21.70;93.70;;;;;;5048418;28;20065;-62
2022/06/12 09:56:49;;;;;;;8.32;2.15;;;21.90;93.90;;;;;;5051071;28;20036;-62
2022/06/12 09:59:23;;;;;;;6.53;2.22;;;22.20;92.00;;;;;;5025411;28;20048;-60
2022/06/12 10:01:57;;;;;;;11.20;2.53;;;22.50;90.40;;;;;;5043652;28;20169;-62
2022/06/12 10:04:30;;;;;;;7.82;2.25;;;22.70;88.90;;;;;;5035575;28;20041;-59
2022/06/12 10:07:02;;;;;;;8.13;2.40;;;22.70;86.80;;;;;;5045226;28;20048;-62
2022/06/12 10:09:39;;;;;;;5.53;1.85;;;22.50;85.20;;;;;;5039454;28;20044;-60
2022/06/12 10:12:16;;;;;;;9.20;2.35;;;22.60;85.10;;;;;;5042428;28;20051;-61
2022/06/12 10:14:48;;;;;;;6.75;1.85;;;22.70;81.60;;;;;;5042946;28;20075;-61
2022/06/12 10:17:37;;;;;;;9.45;1.92;;;22.80;77.60;;;;;;5040951;28;20084;-61
2022/06/12 10:20:16;;;;;;;6.25;1.95;;;22.90;78.60;;;;;;5043171;28;20125;-63
2022/06/12 10:22:45;;;;;;;10.98;1.77;;;22.80;76.80;;;;;;5040903;28;20047;-63
2022/06/12 10:25:28;;;;;;;6.07;1.85;;;22.50;74.60;;;;;;5039339;28;20135;-62
2022/06/12 10:28:03;;;;;;;4.85;1.80;;;22.60;73.50;;;;;;5041670;28;20071;-58
2022/06/12 10:31:10;;;;;;;6.95;1.90;;;22.70;72.60;;;;;;5040155;28;20063;-62
2022/06/12 10:33:42;;;;;;;6.90;2.20;;;23.00;73.40;;;;;;5018424;28;20072;-61
2022/06/12 10:36:23;;;;;;;7.63;1.80;;;23.30;73.90;;;;;;5042362;28;20671;-60
2022/06/12 10:38:49;;;;;;;5.85;2.00;;;23.30;72.30;;;;;;5043137;28;20045;-61
2022/06/12 10:41:27;;;;;;;4.88;1.80;;;23.30;71.60;;;;;;5039539;28;20056;-61
2022/06/12 10:43:56;;;;;;;10.93;2.30;;;23.30;70.90;;;;;;5042282;28;20455;-62
2022/06/12 10:46:29;;;;;;;6.70;2.03;;;23.40;70.10;;;;;;5013921;28;20056;-61
2022/06/12 10:49:15;;;;;;;9.30;2.28;;;23.60;71.20;;;;;;5037509;28;20163;-61
2022/06/12 10:51:41;;;;;;;5.38;2.10;;;23.80;72.20;;;;;;5044674;28;20566;-60
2022/06/12 10:54:22;;;;;;;5.63;1.77;;;23.80;71.20;;;;;;5043577;28;20063;-57
2022/06/12 10:57:09;;;;;;;6.35;2.10;;;23.60;70.50;;;;;;5042214;28;20060;-61
2022/06/12 10:59:44;;;;;;;7.65;2.20;;;23.30;70.90;;;;;;5036213;28;20491;-61
2022/06/12 11:02:37;;;;;;;6.60;2.22;;;23.10;70.20;;;;;;5040439;28;20095;-61
2022/06/12 11:05:21;;;;;;;5.55;1.77;;;23.00;70.30;;;;;;5011678;28;20521;-60
2022/06/12 11:07:56;;;;;;;6.50;2.00;;;22.90;69.20;;;;;;5043183;28;20677;-57
2022/06/12 11:10:21;;;;;;;8.32;2.30;;;22.90;71.20;;;;;;5045274;28;20187;-60
2022/06/12 11:13:31;;;;;;;8.05;2.28;;;23.00;70.50;;;;;;5043902;28;20068;-60
2022/06/12 11:16:12;;;;;;;7.07;2.13;;;23.10;70.70;;;;;;5044192;28;20051;-61
2022/06/12 11:18:45;;;;;;;6.72;2.10;;;23.20;69.60;;;;;;5044578;28;20842;-61
2022/06/12 11:21:43;;;;;;;5.95;1.90;;;23.30;68.70;;;;;;5048508;28;20203;-61
2022/06/12 11:24:13;;;;;;;7.22;1.73;;;23.40;68.80;;;;;;5046106;28;20136;-60
2022/06/12 11:26:59;;;;;;;7.65;1.92;;;23.70;68.80;;;;;;5043308;28;20637;-60
2022/06/12 11:29:51;;;;;;;9.10;1.63;;;23.90;68.50;;;;;;5042433;28;20044;-61
2022/06/12 11:32:30;;;;;;;6.80;1.90;;;24.00;65.70;;;;;;5042633;28;20048;-62
2022/06/12 11:35:17;;;;;;;5.05;1.73;;;24.30;66.50;;;;;;5047889;28;20060;-61
2022/06/12 11:37:46;;;;;;;9.45;2.55;;;24.10;64.80;;;;;;5038669;28;20053;-59
2022/06/12 11:40:44;;;;;;;6.07;1.80;;;24.10;65.20;;;;;;5044597;28;20068;-59
2022/06/12 11:43:45;;;;;;;7.78;1.77;;;24.10;63.90;;;;;;5039899;28;20052;-61
2022/06/12 11:46:33;;;;;;;7.35;2.00;;;24.00;65.60;;;;;;5043037;28;20046;-62
2022/06/12 11:49:28;;;;;;;8.65;2.28;;;23.80;63.50;;;;;;5044652;28;20040;-61
2022/06/12 11:52:13;;;;;;;6.53;1.80;;;23.90;65.50;;;;;;5044423;28;20555;-61
2022/06/12 11:54:55;;;;;;;6.40;2.20;;;24.10;64.90;;;;;;5043078;28;20507;-61
2022/06/12 11:57:44;;;;;;;8.90;2.25;;;24.20;65.00;;;;;;5042875;28;20087;-60
2022/06/12 12:00:14;;;;;;;8.98;2.00;;;24.30;64.10;;;;;;5041330;28;20051;-61
2022/06/12 12:03:25;;;;;;;5.88;1.65;;;24.30;62.30;;;;;;5044183;28;20086;-61
2022/06/12 12:06:09;;;;;;;9.63;1.95;;;24.20;61.70;;;;;;5042697;28;20056;-61
2022/06/12 12:08:54;;;;;;;4.32;1.67;;;23.90;61.30;;;;;;5048286;28;20403;-61
2022/06/12 12:11:34;;;;;;;3.42;1.20;;;23.80;61.60;;;;;;5044908;28;20174;-60
2022/06/12 12:14:03;;;;;;;8.02;1.70;;;23.90;60.30;;;;;;5044350;28;20047;-61
2022/06/12 12:16:43;;;;;;;9.00;2.05;;;24.00;61.10;;;;;;5036969;28;20262;-62
2022/06/12 12:19:27;;;;;;;6.80;2.53;;;24.10;60.90;;;;;;5040218;28;20045;-61
2022/06/12 12:22:02;;;;;;;6.80;1.67;;;23.90;60.90;;;;;;5046417;28;20098;-59
2022/06/12 12:24:39;;;;;;;9.32;1.92;;;23.80;60.70;;;;;;5044906;28;20053;-61
2022/06/12 12:27:15;;;;;;;9.38;2.10;;;24.00;61.50;;;;;;5045266;28;20040;-61
2022/06/12 12:29:42;;;;;;;8.13;2.00;;;24.10;61.10;;;;;;5043381;28;20156;-59
2022/06/12 12:32:11;;;;;;;5.70;1.48;;;23.80;61.30;;;;;;5039073;28;20126;-60
2022/06/12 12:34:39;;;;;;;12.05;2.25;;;23.60;60.30;;;;;;5038642;28;20449;-61
2022/06/12 12:42:41;;;;;;;6.30;2.30;;;24.00;60.30;;;;;;5041380;28;20052;-61
2022/06/12 12:45:23;;;;;;;12.35;2.40;;;23.80;60.00;;;;;;5024978;28;20055;-61
2022/06/12 12:48:06;;;;;;;5.65;1.80;;;23.60;61.00;;;;;;5039499;28;20051;-59
2022/06/12 12:50:54;;;;;;;9.00;1.92;;;23.80;60.90;;;;;;5041807;28;20037;-61
2022/06/12 12:53:32;;;;;;;6.07;1.73;;;24.00;62.40;;;;;;5043138;28;20048;-61
2022/06/12 12:56:12;;;;;;;6.78;2.20;;;24.00;60.70;;;;;;5039169;28;20154;-61
2022/06/12 12:59:07;;;;;;;6.22;1.80;;;23.90;60.10;;;;;;5041322;28;20474;-61
2022/06/12 13:01:39;;;;;;;8.10;2.00;;;23.90;60.40;;;;;;5041513;28;20045;-61
2022/06/12 13:04:14;;;;;;;6.90;1.70;;;24.10;60.00;;;;;;5055945;28;20051;-60
2022/06/12 13:06:55;;;;;;;5.90;2.03;;;24.20;60.40;;;;;;5043097;28;20056;-62
2022/06/12 13:09:30;;;;;;;12.88;2.50;;;24.00;59.40;;;;;;5054517;28;20044;-61
2022/06/12 13:12:04;;;;;;;8.05;2.15;;;23.80;60.10;;;;;;5044214;28;20052;-62
2022/06/12 13:14:44;;;;;;;4.50;2.22;;;23.60;60.40;;;;;;5051295;28;20054;-62
2022/06/12 13:17:28;;;;;;;8.40;2.08;;;23.40;60.60;;;;;;5052531;28;20123;-62
2022/06/12 13:20:29;;;;;;;9.25;2.10;;;23.30;61.10;;;;;;4993288;28;20631;-62
2022/06/12 13:23:04;;;;;;;12.20;2.75;;;23.30;60.60;;;;;;5050088;28;20044;-62
2022/06/12 13:25:40;;;;;;;12.05;2.22;;;23.30;60.60;;;;;;5050318;28;20044;-63
2022/06/12 13:28:20;;;;;;;7.97;1.77;;;23.50;60.60;;;;;;5049820;28;20072;-63
2022/06/12 13:30:45;;;;;;;9.13;2.20;;;23.50;59.10;;;;;;5051309;28;21122;-63
2022/06/12 13:33:24;;;;;;;8.13;2.50;;;23.70;59.80;;;;;;5044142;28;20051;-63
2022/06/12 13:35:55;;;;;;;10.10;2.55;;;24.00;60.60;;;;;;5049275;28;20063;-62